| time (UTC) | temp F | wind direction | speed MPH | gust MPH | rain 1hr in | rain 24hr in | rain mn in | humidity % | barometer mb |
| 20260905212043 | 72 | 134 | 0.0 | 0.0 | 0.00 | 0.00 | 0.00 | 93 | 1019.1 |
| 20260905211510 | 72 | 134 | 0.0 | 0.0 | 0.00 | 0.00 | 0.00 | 93 | 1019.1 |
| 20260905211036 | 72 | 134 | 0.0 | 2.0 | 0.00 | 0.00 | 0.00 | 93 | 1019.5 |
| 20260905210522 | 72 | 134 | 0.0 | 4.0 | 0.00 | 0.00 | 0.00 | 93 | 1019.8 |
| 20260905210009 | 72 | 134 | 3.0 | 5.0 | 0.00 | 0.00 | 0.00 | 93 | 1019.8 |
| 20260905205517 | 72 | 213 | 1.0 | 4.0 | 0.00 | 0.00 | 0.00 | 93 | 1019.6 |
| 20260905205025 | 72 | 260 | 1.0 | 8.0 | 0.00 | 0.00 | 0.00 | 93 | 1019.4 |
| 20260905204511 | 72 | 261 | 3.0 | 8.0 | 0.00 | 0.00 | 0.00 | 93 | 1019.6 |
| 20260905204016 | 72 | 123 | 2.0 | 4.0 | 0.00 | 0.00 | 0.00 | 92 | 1019.9 |
| 20260905203525 | 72 | 113 | 1.0 | 6.0 | 0.00 | 0.00 | 0.00 | 92 | 1020.4 |
| 20260905203013 | 72 | 109 | 2.0 | 6.0 | 0.00 | 0.00 | 0.00 | 92 | 1020.4 |
| 20260905202521 | 72 | 251 | 0.0 | 9.0 | 0.00 | 0.00 | 0.00 | 92 | 1020.3 |
| 20260905202049 | 72 | 251 | 1.0 | 9.0 | 0.00 | 0.00 | 0.00 | 92 | 1020.0 |
| 20260905201516 | 72 | 261 | 4.0 | 6.0 | 0.00 | 0.00 | 0.00 | 91 | 1020.2 |
| 20260905201024 | 72 | 263 | 1.0 | 4.0 | 0.00 | 0.00 | 0.00 | 91 | 1020.3 |
| 20260905200513 | 72 | 261 | 2.0 | 4.0 | 0.00 | 0.00 | 0.00 | 91 | 1020.4 |
| 20260905200041 | 72 | 258 | 1.0 | 6.0 | 0.00 | 0.00 | 0.00 | 90 | 1020.4 |
| 20260905195509 | 72 | 258 | 0.0 | 10.0 | 0.00 | 0.00 | 0.00 | 90 | 1019.9 |
| 20260905195014 | 72 | 263 | 2.0 | 17.0 | 0.00 | 0.00 | 0.00 | 89 | 1019.6 |
| 20260905194522 | 72 | 262 | 4.0 | 17.0 | 0.00 | 0.00 | 0.00 | 89 | 1018.9 |
| 20260905194010 | 73 | 250 | 7.0 | 18.0 | 0.00 | 0.00 | 0.00 | 89 | 1019.1 |
| 20260905193518 | 72 | 246 | 12.0 | 18.0 | 0.00 | 0.00 | 0.00 | 89 | 1018.8 |
| 20260905193026 | 72 | 115 | 0.0 | 4.0 | 0.00 | 0.00 | 0.00 | 89 | 1017.7 |
| 20260905192515 | 72 | 115 | 0.0 | 6.0 | 0.00 | 0.00 | 0.00 | 89 | 1017.5 |
| 20260905192043 | 72 | 115 | 1.0 | 6.0 | 0.00 | 0.00 | 0.00 | 89 | 1017.3 |
| 20260905191509 | 72 | 117 | 3.0 | 8.0 | 0.00 | 0.00 | 0.00 | 89 | 1017.2 |
| 20260905191014 | 72 | 96 | 3.0 | 9.0 | 0.00 | 0.00 | 0.00 | 88 | 1017.1 |
| 20260905190522 | 72 | 82 | 2.0 | 10.0 | 0.00 | 0.00 | 0.00 | 88 | 1017.0 |
| 20260905190009 | 72 | 66 | 4.0 | 12.0 | 0.00 | 0.00 | 0.00 | 88 | 1016.9 |
| 20260905185538 | 73 | 102 | 5.0 | 12.0 | 0.00 | 0.00 | 0.00 | 87 | 1017.2 |
| 20260905185025 | 73 | 54 | 4.0 | 9.0 | 0.00 | 0.00 | 0.00 | 87 | 1017.2 |
| 20260905184512 | 73 | 84 | 3.0 | 10.0 | 0.00 | 0.00 | 0.00 | 87 | 1017.3 |
| 20260905184021 | 73 | 88 | 4.0 | 11.0 | 0.00 | 0.00 | 0.00 | 86 | 1017.2 |
| 20260905183509 | 73 | 45 | 4.0 | 11.0 | 0.00 | 0.00 | 0.00 | 86 | 1017.1 |
| 20260905183015 | 73 | 90 | 3.0 | 9.0 | 0.00 | 0.00 | 0.00 | 86 | 1017.3 |
| 20260905182524 | 73 | 45 | 4.0 | 10.0 | 0.00 | 0.00 | 0.00 | 86 | 1017.4 |
| 20260905182012 | 73 | 103 | 4.0 | 10.0 | 0.00 | 0.00 | 0.00 | 86 | 1017.4 |
| 20260905181521 | 73 | 57 | 1.0 | 7.0 | 0.00 | 0.00 | 0.00 | 86 | 1017.3 |
| 20260905181009 | 74 | 46 | 3.0 | 9.0 | 0.00 | 0.00 | 0.00 | 85 | 1017.2 |
| 20260905180517 | 74 | 89 | 5.0 | 9.0 | 0.00 | 0.00 | 0.00 | 85 | 1017.3 |
| 20260905180023 | 74 | 84 | 3.0 | 11.0 | 0.00 | 0.00 | 0.00 | 85 | 1017.3 |
| 20260905175510 | 74 | 71 | 6.0 | 11.0 | 0.00 | 0.00 | 0.00 | 85 | 1017.1 |
| 20260905175038 | 74 | 62 | 2.0 | 8.0 | 0.00 | 0.00 | 0.00 | 85 | 1016.8 |
| 20260905174524 | 74 | 72 | 4.0 | 12.0 | 0.00 | 0.00 | 0.00 | 85 | 1016.8 |
| 20260905174012 | 74 | 84 | 4.0 | 12.0 | 0.00 | 0.00 | 0.00 | 85 | 1016.8 |
| 20260905173517 | 74 | 67 | 6.0 | 11.0 | 0.00 | 0.00 | 0.00 | 85 | 1017.0 |
| 20260905173025 | 74 | 86 | 4.0 | 12.0 | 0.00 | 0.00 | 0.00 | 85 | 1016.9 |
| 20260905172513 | 74 | 80 | 6.0 | 12.0 | 0.00 | 0.00 | 0.00 | 85 | 1016.7 |
| 20260905172022 | 74 | 69 | 6.0 | 13.0 | 0.00 | 0.00 | 0.00 | 85 | 1016.7 |
| 20260905171510 | 74 | 36 | 8.0 | 13.0 | 0.00 | 0.00 | 0.00 | 85 | 1016.7 |
| 20260905171017 | 74 | 67 | 6.0 | 13.0 | 0.00 | 0.00 | 0.00 | 85 | 1016.7 |
| 20260905170524 | 75 | 69 | 5.0 | 13.0 | 0.00 | 0.00 | 0.00 | 86 | 1016.7 |
| 20260905170016 | 75 | 49 | 5.0 | 15.0 | 0.00 | 0.00 | 0.00 | 86 | 1016.7 |
| 20260905165540 | 75 | 52 | 8.0 | 15.0 | 0.00 | 0.00 | 0.00 | 86 | 1016.7 |
| 20260905165023 | 75 | 25 | 6.0 | 14.0 | 0.00 | 0.00 | 0.00 | 86 | 1016.7 |
| 20260905164531 | 75 | 82 | 7.0 | 14.0 | 0.00 | 0.00 | 0.00 | 86 | 1016.7 |
| 20260905164015 | 75 | 57 | 6.0 | 15.0 | 0.00 | 0.00 | 0.00 | 86 | 1016.7 |
| 20260905163543 | 75 | 80 | 6.0 | 19.0 | 0.00 | 0.00 | 0.00 | 86 | 1016.7 |
| 20260905163049 | 75 | 42 | 8.0 | 19.0 | 0.00 | 0.00 | 0.00 | 86 | 1016.9 |
| 20260905162516 | 75 | 29 | 6.0 | 13.0 | 0.00 | 0.00 | 0.00 | 87 | 1016.8 |
| 20260905162023 | 74 | 41 | 4.0 | 13.0 | 0.00 | 0.00 | 0.00 | 87 | 1016.8 |
| 20260905161511 | 75 | 44 | 5.0 | 13.0 | 0.00 | 0.00 | 0.00 | 86 | 1016.8 |
| 20260905161019 | 74 | 48 | 6.0 | 13.0 | 0.00 | 0.00 | 0.00 | 86 | 1016.8 |
| 20260905160528 | 75 | 14 | 7.0 | 14.0 | 0.00 | 0.00 | 0.00 | 86 | 1016.8 |
| 20260905160034 | 75 | 40 | 6.0 | 13.0 | 0.00 | 0.00 | 0.00 | 85 | 1016.8 |
| 20260905155522 | 75 | 26 | 9.0 | 13.0 | 0.00 | 0.00 | 0.00 | 84 | 1016.9 |
| 20260905155025 | 75 | 38 | 8.0 | 13.0 | 0.00 | 0.00 | 0.00 | 84 | 1016.8 |
| 20260905154513 | 76 | 24 | 6.0 | 14.0 | 0.00 | 0.00 | 0.00 | 83 | 1017.0 |
| 20260905154020 | 76 | 35 | 7.0 | 16.0 | 0.00 | 0.00 | 0.00 | 82 | 1016.9 |
| 20260905153527 | 77 | 74 | 8.0 | 13.0 | 0.00 | 0.00 | 0.00 | 81 | 1017.0 |
| 20260905153015 | 77 | 41 | 6.0 | 13.0 | 0.00 | 0.00 | 0.00 | 80 | 1016.9 |
| 20260905152524 | 77 | 53 | 6.0 | 15.0 | 0.00 | 0.00 | 0.00 | 80 | 1016.9 |
| 20260905152015 | 77 | 71 | 6.0 | 15.0 | 0.00 | 0.00 | 0.00 | 81 | 1017.0 |
| 20260905151538 | 77 | 81 | 6.0 | 14.0 | 0.00 | 0.00 | 0.00 | 81 | 1016.9 |
| 20260905151025 | 77 | 90 | 6.0 | 16.0 | 0.00 | 0.00 | 0.00 | 82 | 1017.0 |
| 20260905150512 | 76 | 53 | 7.0 | 16.0 | 0.00 | 0.00 | 0.00 | 82 | 1017.0 |
| 20260905150015 | 76 | 35 | 10.0 | 20.0 | 0.00 | 0.00 | 0.00 | 81 | 1017.0 |
| 20260905145524 | 77 | 99 | 7.0 | 20.0 | 0.00 | 0.00 | 0.00 | 81 | 1017.0 |
| 20260905145012 | 77 | 81 | 7.0 | 17.0 | 0.00 | 0.00 | 0.00 | 82 | 1017.0 |
| 20260905144520 | 76 | 67 | 5.0 | 18.0 | 0.00 | 0.00 | 0.00 | 82 | 1017.0 |
| 20260905144013 | 76 | 91 | 7.0 | 18.0 | 0.00 | 0.00 | 0.00 | 82 | 1017.1 |
| 20260905143521 | 76 | 56 | 8.0 | 16.0 | 0.00 | 0.00 | 0.00 | 81 | 1017.1 |
| 20260905143010 | 76 | 46 | 9.0 | 16.0 | 0.00 | 0.00 | 0.00 | 81 | 1017.2 |
| 20260905142518 | 77 | 80 | 10.0 | 16.0 | 0.00 | 0.00 | 0.00 | 81 | 1017.2 |
| 20260905142023 | 76 | 90 | 9.0 | 16.0 | 0.00 | 0.00 | 0.00 | 82 | 1017.2 |
| 20260905141531 | 76 | 51 | 7.0 | 17.0 | 0.00 | 0.00 | 0.00 | 82 | 1017.3 |
| 20260905141016 | 76 | 57 | 7.0 | 21.0 | 0.00 | 0.00 | 0.00 | 83 | 1017.3 |
| 20260905140524 | 76 | 30 | 11.0 | 22.0 | 0.00 | 0.00 | 0.00 | 82 | 1017.4 |
| 20260905140032 | 76 | 19 | 11.0 | 22.0 | 0.00 | 0.00 | 0.00 | 82 | 1017.6 |
| 20260905135540 | 76 | 55 | 7.0 | 19.0 | 0.00 | 0.00 | 0.00 | 82 | 1017.6 |
| 20260905135021 | 76 | 61 | 9.0 | 19.0 | 0.00 | 0.00 | 0.00 | 82 | 1017.7 |
| 20260905134510 | 77 | 48 | 9.0 | 20.0 | 0.00 | 0.00 | 0.00 | 81 | 1017.7 |
| 20260905134018 | 76 | 92 | 11.0 | 20.0 | 0.00 | 0.00 | 0.00 | 81 | 1017.6 |
| 20260905133526 | 77 | 63 | 12.0 | 19.0 | 0.00 | 0.00 | 0.00 | 80 | 1017.7 |
| 20260905133033 | 77 | 88 | 7.0 | 17.0 | 0.00 | 0.00 | 0.00 | 80 | 1017.7 |
| 20260905132541 | 77 | 49 | 8.0 | 17.0 | 0.00 | 0.00 | 0.00 | 80 | 1017.7 |
| 20260905132027 | 77 | 43 | 8.0 | 16.0 | 0.00 | 0.00 | 0.00 | 79 | 1017.9 |
| 20260905131515 | 77 | 84 | 9.0 | 16.0 | 0.00 | 0.00 | 0.00 | 78 | 1018.0 |
| 20260905131021 | 77 | 67 | 8.0 | 16.0 | 0.00 | 0.00 | 0.00 | 78 | 1018.0 |
| 20260905130509 | 78 | 77 | 8.0 | 15.0 | 0.00 | 0.00 | 0.00 | 78 | 1018.0 |
| 20260905130018 | 77 | 93 | 6.0 | 16.0 | 0.00 | 0.00 | 0.00 | 79 | 1018.0 |
| 20260905125526 | 77 | 83 | 5.0 | 16.0 | 0.00 | 0.00 | 0.00 | 78 | 1018.0 |
| 20260905125015 | 77 | 94 | 7.0 | 16.0 | 0.00 | 0.00 | 0.00 | 77 | 1018.2 |
| 20260905124522 | 78 | 95 | 6.0 | 15.0 | 0.00 | 0.00 | 0.00 | 77 | 1018.2 |
| 20260905124047 | 78 | 115 | 7.0 | 16.0 | 0.00 | 0.00 | 0.00 | 78 | 1018.2 |
| 20260905123514 | 77 | 39 | 9.0 | 20.0 | 0.00 | 0.00 | 0.00 | 78 | 1018.2 |
| 20260905123019 | 77 | 114 | 9.0 | 20.0 | 0.00 | 0.00 | 0.00 | 78 | 1018.3 |
| 20260905122527 | 78 | 101 | 8.0 | 16.0 | 0.00 | 0.00 | 0.00 | 77 | 1018.4 |
| 20260905122016 | 77 | 89 | 8.0 | 16.0 | 0.00 | 0.00 | 0.00 | 78 | 1018.5 |
| 20260905121524 | 78 | 72 | 6.0 | 14.0 | 0.00 | 0.00 | 0.00 | 78 | 1018.6 |
| 20260905121013 | 78 | 75 | 4.0 | 10.0 | 0.00 | 0.00 | 0.00 | 79 | 1018.6 |
| 20260905120521 | 78 | 94 | 4.0 | 13.0 | 0.00 | 0.00 | 0.00 | 78 | 1018.7 |
| 20260905120009 | 78 | 35 | 5.0 | 13.0 | 0.00 | 0.00 | 0.00 | 77 | 1018.8 |
| 20260905115517 | 78 | 83 | 7.0 | 15.0 | 0.00 | 0.00 | 0.00 | 76 | 1018.8 |
| 20260905115026 | 78 | 92 | 8.0 | 15.0 | 0.00 | 0.00 | 0.00 | 76 | 1018.9 |
| 20260905114512 | 78 | 88 | 5.0 | 17.0 | 0.00 | 0.00 | 0.00 | 75 | 1019.0 |
| 20260905114019 | 78 | 79 | 9.0 | 17.0 | 0.00 | 0.00 | 0.00 | 75 | 1019.0 |
| 20260905113528 | 78 | 107 | 9.0 | 16.0 | 0.00 | 0.00 | 0.00 | 76 | 1019.1 |
| 20260905113015 | 77 | 101 | 8.0 | 16.0 | 0.00 | 0.00 | 0.00 | 76 | 1019.3 |
| 20260905112523 | 77 | 97 | 7.0 | 15.0 | 0.00 | 0.00 | 0.00 | 76 | 1019.4 |
| 20260905112010 | 77 | 57 | 7.0 | 23.0 | 0.00 | 0.00 | 0.00 | 77 | 1019.5 |
| 20260905111517 | 77 | 59 | 7.0 | 23.0 | 0.00 | 0.00 | 0.00 | 78 | 1019.6 |
| 20260905111046 | 76 | 94 | 8.0 | 17.0 | 0.00 | 0.00 | 0.00 | 79 | 1019.7 |
| 20260905110513 | 75 | 58 | 9.0 | 17.0 | 0.00 | 0.00 | 0.00 | 81 | 1019.8 |
| 20260905110021 | 75 | 84 | 8.0 | 17.0 | 0.00 | 0.00 | 0.00 | 82 | 1020.1 |
| 20260905105510 | 75 | 80 | 10.0 | 17.0 | 0.00 | 0.00 | 0.00 | 82 | 1020.0 |
| 20260905105017 | 75 | 92 | 8.0 | 14.0 | 0.00 | 0.00 | 0.00 | 83 | 1020.2 |
| 20260905104526 | 74 | 76 | 6.0 | 15.0 | 0.00 | 0.00 | 0.00 | 84 | 1020.2 |
| 20260905104014 | 74 | 34 | 6.0 | 15.0 | 0.00 | 0.00 | 0.00 | 84 | 1020.3 |
| 20260905103543 | 74 | 31 | 8.0 | 14.0 | 0.00 | 0.00 | 0.00 | 84 | 1020.3 |
| 20260905103010 | 74 | 92 | 6.0 | 13.0 | 0.00 | 0.00 | 0.00 | 85 | 1020.4 |
| 20260905102520 | 74 | 106 | 3.0 | 15.0 | 0.00 | 0.00 | 0.00 | 85 | 1020.4 |
| 20260905102021 | 74 | 85 | 7.0 | 15.0 | 0.00 | 0.00 | 0.00 | 85 | 1020.5 |
| 20260905101509 | 74 | 90 | 6.0 | 14.0 | 0.00 | 0.00 | 0.00 | 86 | 1020.7 |
| 20260905101016 | 73 | 62 | 6.0 | 14.0 | 0.00 | 0.00 | 0.00 | 86 | 1020.6 |
| 20260905100524 | 73 | 76 | 2.0 | 9.0 | 0.00 | 0.00 | 0.00 | 87 | 1020.9 |
| 20260905100010 | 73 | 109 | 6.0 | 9.0 | 0.00 | 0.00 | 0.00 | 87 | 1020.8 |
| 20260905095518 | 73 | 132 | 5.0 | 11.0 | 0.00 | 0.00 | 0.00 | 87 | 1020.9 |
| 20260905095025 | 73 | 73 | 7.0 | 13.0 | 0.00 | 0.00 | 0.00 | 88 | 1020.9 |
| 20260905094513 | 73 | 90 | 3.0 | 13.0 | 0.00 | 0.00 | 0.00 | 88 | 1020.8 |
| 20260905094021 | 72 | 94 | 8.0 | 13.0 | 0.00 | 0.00 | 0.00 | 88 | 1020.8 |
| 20260905093509 | 72 | 91 | 5.0 | 13.0 | 0.00 | 0.00 | 0.00 | 89 | 1020.8 |
| 20260905093015 | 72 | 98 | 6.0 | 13.0 | 0.00 | 0.00 | 0.00 | 89 | 1020.8 |
| 20260905092523 | 72 | 124 | 5.0 | 9.0 | 0.00 | 0.00 | 0.00 | 89 | 1020.8 |
| 20260905092012 | 72 | 105 | 4.0 | 9.0 | 0.00 | 0.00 | 0.00 | 89 | 1020.7 |
| 20260905091520 | 72 | 84 | 4.0 | 9.0 | 0.00 | 0.00 | 0.00 | 89 | 1020.8 |
| 20260905091008 | 72 | 86 | 3.0 | 9.0 | 0.00 | 0.00 | 0.00 | 89 | 1020.9 |
| 20260905090537 | 72 | 83 | 2.0 | 8.0 | 0.00 | 0.00 | 0.00 | 90 | 1021.0 |
| 20260905090044 | 72 | 87 | 3.0 | 8.0 | 0.00 | 0.00 | 0.00 | 90 | 1021.0 |
| 20260905085512 | 72 | 78 | 2.0 | 9.0 | 0.00 | 0.00 | 0.00 | 90 | 1021.0 |
| 20260905085013 | 72 | 78 | 4.0 | 9.0 | 0.00 | 0.00 | 0.00 | 90 | 1021.1 |
| 20260905084521 | 72 | 94 | 5.0 | 9.0 | 0.00 | 0.00 | 0.00 | 90 | 1021.1 |
| 20260905084009 | 72 | 63 | 3.0 | 8.0 | 0.00 | 0.00 | 0.00 | 90 | 1020.9 |
| 20260905083517 | 72 | 117 | 4.0 | 9.0 | 0.00 | 0.00 | 0.00 | 90 | 1020.9 |
| 20260905083026 | 71 | 102 | 6.0 | 10.0 | 0.00 | 0.00 | 0.00 | 90 | 1020.9 |
| 20260905082514 | 71 | 105 | 4.0 | 8.0 | 0.00 | 0.00 | 0.00 | 91 | 1020.9 |
| 20260905082021 | 71 | 71 | 4.0 | 7.0 | 0.00 | 0.00 | 0.00 | 91 | 1021.1 |
| 20260905081512 | 71 | 81 | 2.0 | 8.0 | 0.00 | 0.00 | 0.00 | 91 | 1021.1 |
| 20260905081018 | 71 | 82 | 2.0 | 8.0 | 0.00 | 0.00 | 0.00 | 91 | 1021.3 |
| 20260905080527 | 71 | 90 | 4.0 | 7.0 | 0.00 | 0.00 | 0.00 | 91 | 1021.2 |
| 20260905080034 | 71 | 86 | 1.0 | 10.0 | 0.00 | 0.00 | 0.00 | 91 | 1021.0 |
| 20260905075521 | 71 | 82 | 3.0 | 10.0 | 0.00 | 0.00 | 0.00 | 91 | 1021.0 |
| 20260905075028 | 71 | 76 | 2.0 | 9.0 | 0.00 | 0.00 | 0.00 | 91 | 1021.2 |
| 20260905074516 | 71 | 108 | 4.0 | 7.0 | 0.00 | 0.00 | 0.00 | 91 | 1021.3 |
| 20260905074023 | 71 | 88 | 4.0 | 6.0 | 0.00 | 0.00 | 0.00 | 91 | 1021.1 |
| 20260905073511 | 71 | 73 | 2.0 | 6.0 | 0.00 | 0.00 | 0.00 | 92 | 1021.2 |
| 20260905073018 | 71 | 77 | 4.0 | 7.0 | 0.00 | 0.00 | 0.00 | 92 | 1021.4 |
| 20260905072525 | 71 | 69 | 1.0 | 8.0 | 0.00 | 0.00 | 0.00 | 92 | 1021.4 |
| 20260905072013 | 71 | 69 | 1.0 | 8.0 | 0.00 | 0.00 | 0.00 | 92 | 1021.5 |
| 20260905071520 | 71 | 81 | 2.0 | 5.0 | 0.00 | 0.00 | 0.00 | 92 | 1021.6 |
| 20260905071028 | 71 | 92 | 2.0 | 4.0 | 0.00 | 0.00 | 0.00 | 92 | 1021.4 |
| 20260905070517 | 70 | 92 | 1.0 | 7.0 | 0.00 | 0.00 | 0.00 | 92 | 1021.4 |
| 20260905070024 | 70 | 92 | 2.0 | 7.0 | 0.00 | 0.00 | 0.00 | 92 | 1021.1 |
| 20260905065512 | 70 | 93 | 0.0 | 6.0 | 0.00 | 0.00 | 0.00 | 93 | 1021.1 |
| 20260905065018 | 70 | 93 | 1.0 | 6.0 | 0.00 | 0.00 | 0.00 | 93 | 1021.2 |
| 20260905064527 | 70 | 81 | 1.0 | 6.0 | 0.00 | 0.00 | 0.00 | 93 | 1021.0 |
| 20260905064014 | 70 | 81 | 2.0 | 6.0 | 0.00 | 0.00 | 0.00 | 93 | 1020.8 |
| 20260905063543 | 70 | 82 | 3.0 | 5.0 | 0.00 | 0.00 | 0.00 | 93 | 1020.8 |
| 20260905063011 | 70 | 82 | 2.0 | 4.0 | 0.00 | 0.00 | 0.00 | 93 | 1020.6 |
| 20260905062539 | 70 | 82 | 0.0 | 3.0 | 0.00 | 0.00 | 0.00 | 93 | 1020.5 |
| 20260905062047 | 70 | 82 | 1.0 | 3.0 | 0.00 | 0.00 | 0.00 | 93 | 1020.5 |
| 20260905061513 | 70 | 82 | 0.0 | 3.0 | 0.00 | 0.00 | 0.00 | 93 | 1020.4 |
| 20260905061019 | 70 | 82 | 2.0 | 3.0 | 0.00 | 0.00 | 0.00 | 93 | 1020.5 |
| 20260905060528 | 70 | 82 | 1.0 | 3.0 | 0.00 | 0.00 | 0.00 | 93 | 1020.5 |
| 20260905060016 | 70 | 82 | 1.0 | 3.0 | 0.00 | 0.00 | 0.00 | 93 | 1020.5 |
| 20260905055544 | 70 | 82 | 0.0 | 3.0 | 0.00 | 0.00 | 0.00 | 93 | 1020.5 |
| 20260905055011 | 70 | 82 | 1.0 | 3.0 | 0.00 | 0.00 | 0.00 | 93 | 1020.5 |
| 20260905054540 | 70 | 82 | 0.0 | 1.0 | 0.00 | 0.00 | 0.00 | 93 | 1020.5 |
| 20260905054027 | 70 | 82 | 0.0 | 1.0 | 0.00 | 0.00 | 0.00 | 92 | 1020.4 |
| 20260905053515 | 70 | 82 | 0.0 | 5.0 | 0.00 | 0.00 | 0.00 | 92 | 1020.4 |
| 20260905053022 | 70 | 82 | 1.0 | 5.0 | 0.00 | 0.00 | 0.00 | 92 | 1020.3 |
| 20260905052510 | 70 | 85 | 2.0 | 7.0 | 0.00 | 0.00 | 0.00 | 92 | 1020.3 |
| 20260905052039 | 70 | 85 | 3.0 | 7.0 | 0.00 | 0.00 | 0.00 | 92 | 1020.3 |
| 20260905051526 | 70 | 82 | 3.0 | 5.0 | 0.00 | 0.00 | 0.00 | 92 | 1020.3 |
| 20260905051014 | 70 | 51 | 2.0 | 6.0 | 0.00 | 0.00 | 0.00 | 93 | 1020.5 |
| 20260905050543 | 70 | 52 | 1.0 | 6.0 | 0.00 | 0.00 | 0.00 | 93 | 1020.4 |
| 20260905050049 | 70 | 94 | 0.0 | 4.0 | 0.00 | 0.04 | 0.00 | 93 | 1020.4 |
| 20260905045516 | 70 | 96 | 1.0 | 3.0 | 0.00 | 0.04 | 0.00 | 93 | 1020.4 |
| 20260905045024 | 70 | 96 | 1.0 | 3.0 | 0.00 | 0.04 | 0.00 | 93 | 1020.5 |
| 20260905044531 | 70 | 96 | 1.0 | 4.0 | 0.00 | 0.04 | 0.00 | 93 | 1020.5 |
| 20260905044019 | 70 | 96 | 1.0 | 4.0 | 0.00 | 0.04 | 0.00 | 93 | 1020.6 |
| 20260905043525 | 70 | 96 | 0.0 | 0.0 | 0.00 | 0.04 | 0.00 | 93 | 1020.7 |
| 20260905043034 | 70 | 96 | 0.0 | 3.0 | 0.00 | 0.04 | 0.00 | 93 | 1020.6 |
| 20260905042521 | 70 | 96 | 0.0 | 3.0 | 0.00 | 0.04 | 0.00 | 93 | 1020.6 |
| 20260905042010 | 70 | 96 | 0.0 | 2.0 | 0.00 | 0.04 | 0.00 | 93 | 1020.6 |
| 20260905041519 | 70 | 96 | 0.0 | 3.0 | 0.00 | 0.04 | 0.00 | 93 | 1020.8 |
| 20260905041025 | 70 | 96 | 0.0 | 3.0 | 0.00 | 0.04 | 0.00 | 93 | 1020.7 |
| 20260905040514 | 70 | 96 | 0.0 | 1.0 | 0.00 | 0.04 | 0.00 | 93 | 1020.6 |
| 20260905040021 | 70 | 96 | 0.0 | 3.0 | 0.00 | 0.04 | 0.00 | 93 | 1020.7 |
| 20260905035509 | 70 | 96 | 0.0 | 4.0 | 0.00 | 0.04 | 0.00 | 93 | 1020.7 |
| 20260905035016 | 70 | 96 | 2.0 | 4.0 | 0.00 | 0.04 | 0.00 | 93 | 1020.6 |
| 20260905034524 | 70 | 96 | 1.0 | 3.0 | 0.00 | 0.04 | 0.00 | 93 | 1020.7 |
| 20260905034011 | 70 | 96 | 0.0 | 2.0 | 0.00 | 0.04 | 0.00 | 93 | 1020.7 |
| 20260905033539 | 70 | 96 | 0.0 | 4.0 | 0.00 | 0.04 | 0.00 | 93 | 1020.8 |
| 20260905033047 | 70 | 96 | 1.0 | 4.0 | 0.00 | 0.04 | 0.00 | 93 | 1020.7 |
| 20260905032513 | 70 | 96 | 0.0 | 1.0 | 0.00 | 0.04 | 0.00 | 93 | 1020.7 |
| 20260905032020 | 70 | 96 | 0.0 | 3.0 | 0.00 | 0.04 | 0.00 | 93 | 1020.8 |
| 20260905031527 | 70 | 96 | 1.0 | 4.0 | 0.00 | 0.04 | 0.00 | 93 | 1020.8 |
| 20260905031014 | 70 | 96 | 1.0 | 4.0 | 0.00 | 0.04 | 0.00 | 93 | 1020.8 |
| 20260905030521 | 70 | 96 | 1.0 | 3.0 | 0.00 | 0.04 | 0.00 | 93 | 1020.7 |
| 20260905030028 | 70 | 96 | 1.0 | 3.0 | 0.00 | 0.04 | 0.00 | 93 | 1020.7 |
| 20260905025517 | 70 | 96 | 0.0 | 3.0 | 0.00 | 0.04 | 0.00 | 93 | 1020.8 |
| 20260905025025 | 70 | 96 | 0.0 | 4.0 | 0.00 | 0.04 | 0.00 | 93 | 1020.7 |
| 20260905024512 | 70 | 98 | 0.0 | 4.0 | 0.00 | 0.04 | 0.00 | 93 | 1020.7 |
| 20260905024021 | 70 | 98 | 2.0 | 4.0 | 0.00 | 0.04 | 0.00 | 93 | 1020.7 |
| 20260905023509 | 71 | 98 | 2.0 | 3.0 | 0.00 | 0.04 | 0.00 | 93 | 1020.8 |
| 20260905023015 | 71 | 98 | 0.0 | 2.0 | 0.00 | 0.04 | 0.00 | 93 | 1020.8 |
| 20260905022523 | 71 | 98 | 0.0 | 6.0 | 0.00 | 0.04 | 0.00 | 92 | 1020.8 |
| 20260905022011 | 71 | 98 | 2.0 | 6.0 | 0.00 | 0.04 | 0.00 | 92 | 1020.9 |
| 20260905021519 | 71 | 345 | 0.0 | 0.0 | 0.00 | 0.04 | 0.00 | 92 | 1020.9 |
| 20260905021048 | 70 | 345 | 0.0 | 0.0 | 0.00 | 0.04 | 0.00 | 93 | 1020.8 |
| 20260905020515 | 70 | 345 | 0.0 | 1.0 | 0.00 | 0.04 | 0.00 | 93 | 1020.8 |
| 20260905020023 | 71 | 345 | 0.0 | 1.0 | 0.00 | 0.04 | 0.00 | 92 | 1021.0 |
| 20260905015531 | 71 | 345 | 0.0 | 0.0 | 0.00 | 0.04 | 0.00 | 92 | 1021.1 |
| 20260905015016 | 71 | 345 | 0.0 | 0.0 | 0.00 | 0.04 | 0.00 | 92 | 1021.2 |
| 20260905014523 | 71 | 345 | 0.0 | 0.0 | 0.00 | 0.04 | 0.00 | 92 | 1021.3 |
| 20260905014010 | 71 | 345 | 0.0 | 0.0 | 0.00 | 0.04 | 0.00 | 93 | 1021.4 |
| 20260905013518 | 71 | 345 | 0.0 | 0.0 | 0.00 | 0.04 | 0.00 | 92 | 1021.4 |
| 20260905013047 | 71 | 345 | 0.0 | 0.0 | 0.00 | 0.04 | 0.00 | 92 | 1021.4 |
| 20260905012516 | 71 | 345 | 0.0 | 1.0 | 0.00 | 0.04 | 0.00 | 92 | 1021.5 |
| 20260905012017 | 71 | 345 | 0.0 | 1.0 | 0.00 | 0.04 | 0.00 | 92 | 1021.5 |
| 20260905011546 | 71 | 345 | 0.0 | 0.0 | 0.00 | 0.04 | 0.00 | 92 | 1021.5 |
| 20260905011013 | 71 | 345 | 0.0 | 0.0 | 0.00 | 0.04 | 0.00 | 92 | 1021.6 |
| 20260905010520 | 71 | 345 | 0.0 | 0.0 | 0.00 | 0.04 | 0.00 | 92 | 1021.7 |
| 20260905010027 | 71 | 345 | 0.0 | 0.0 | 0.00 | 0.04 | 0.00 | 92 | 1021.8 |
| 20260905005515 | 71 | 345 | 0.0 | 0.0 | 0.00 | 0.04 | 0.00 | 92 | 1021.9 |
| 20260905005022 | 71 | 345 | 0.0 | 1.0 | 0.00 | 0.04 | 0.00 | 92 | 1021.9 |
| 20260905004511 | 71 | 345 | 0.0 | 1.0 | 0.00 | 0.04 | 0.00 | 92 | 1021.9 |
| 20260905004018 | 71 | 345 | 0.0 | 0.0 | 0.00 | 0.04 | 0.00 | 92 | 1021.8 |
| 20260905003527 | 71 | 345 | 0.0 | 0.0 | 0.00 | 0.04 | 0.00 | 92 | 1021.8 |
| 20260905003035 | 71 | 345 | 0.0 | 2.0 | 0.00 | 0.04 | 0.00 | 92 | 1021.8 |
| 20260905002523 | 71 | 345 | 0.0 | 3.0 | 0.00 | 0.04 | 0.00 | 92 | 1021.7 |
| 20260905002011 | 71 | 345 | 1.0 | 3.0 | 0.00 | 0.04 | 0.00 | 92 | 1021.7 |
| 20260905001519 | 71 | 345 | 0.0 | 2.0 | 0.00 | 0.04 | 0.00 | 92 | 1021.7 |
| 20260905001027 | 71 | 345 | 1.0 | 2.0 | 0.00 | 0.04 | 0.00 | 92 | 1021.6 |
| 20260905000515 | 71 | 345 | 0.0 | 1.0 | 0.00 | 0.04 | 0.00 | 92 | 1021.7 |
| 20260905000022 | 71 | 345 | 0.0 | 3.0 | 0.00 | 0.04 | 0.01 | 92 | 1021.6 |
| 20260904235514 | 71 | 345 | 1.0 | 3.0 | 0.00 | 0.04 | 0.01 | 92 | 1021.6 |
| 20260904235019 | 71 | 345 | 0.0 | 4.0 | 0.00 | 0.04 | 0.01 | 92 | 1021.7 |
| 20260904234527 | 71 | 345 | 2.0 | 4.0 | 0.00 | 0.04 | 0.01 | 92 | 1021.7 |
| 20260904234034 | 71 | 345 | 1.0 | 3.0 | 0.00 | 0.04 | 0.01 | 92 | 1021.7 |
| 20260904233522 | 71 | 345 | 1.0 | 2.0 | 0.00 | 0.04 | 0.01 | 92 | 1021.7 |
| 20260904233009 | 71 | 345 | 0.0 | 2.0 | 0.00 | 0.04 | 0.01 | 92 | 1021.7 |
| 20260904232518 | 71 | 345 | 0.0 | 3.0 | 0.00 | 0.04 | 0.01 | 92 | 1021.6 |
| 20260904232022 | 71 | 345 | 0.0 | 3.0 | 0.00 | 0.04 | 0.01 | 92 | 1021.6 |
| 20260904231530 | 71 | 345 | 0.0 | 4.0 | 0.00 | 0.04 | 0.01 | 92 | 1021.6 |
| 20260904231038 | 71 | 345 | 0.0 | 4.0 | 0.00 | 0.04 | 0.01 | 92 | 1021.6 |
| 20260904230526 | 71 | 345 | 0.0 | 3.0 | 0.00 | 0.04 | 0.01 | 92 | 1021.6 |
| 20260904230033 | 71 | 345 | 1.0 | 3.0 | 0.00 | 0.04 | 0.01 | 91 | 1021.7 |
| 20260904225521 | 71 | 345 | 0.0 | 1.0 | 0.00 | 0.04 | 0.01 | 91 | 1021.7 |
| 20260904225009 | 71 | 345 | 0.0 | 2.0 | 0.00 | 0.04 | 0.01 | 91 | 1021.7 |
| 20260904224517 | 71 | 345 | 0.0 | 2.0 | 0.00 | 0.04 | 0.01 | 91 | 1021.7 |
| 20260904224025 | 71 | 345 | 0.0 | 0.0 | 0.00 | 0.04 | 0.01 | 91 | 1021.7 |
| 20260904223512 | 71 | 345 | 0.0 | 3.0 | 0.00 | 0.04 | 0.01 | 91 | 1021.8 |
| 20260904223018 | 71 | 345 | 0.0 | 3.0 | 0.00 | 0.04 | 0.01 | 91 | 1021.8 |
| 20260904222526 | 71 | 344 | 1.0 | 3.0 | 0.00 | 0.04 | 0.01 | 91 | 1021.8 |
| 20260904222014 | 71 | 344 | 1.0 | 3.0 | 0.00 | 0.04 | 0.01 | 91 | 1021.8 |
| 20260904221544 | 71 | 344 | 1.0 | 3.0 | 0.00 | 0.04 | 0.01 | 91 | 1021.9 |
| 20260904221011 | 71 | 344 | 2.0 | 3.0 | 0.00 | 0.04 | 0.01 | 91 | 1021.9 |
| 20260904220519 | 71 | 343 | 1.0 | 2.0 | 0.00 | 0.04 | 0.01 | 90 | 1022.1 |
| 20260904220047 | 71 | 343 | 0.0 | 2.0 | 0.00 | 0.04 | 0.01 | 90 | 1022.2 |
| 20260904215514 | 71 | 343 | 0.0 | 2.0 | 0.00 | 0.04 | 0.01 | 90 | 1022.4 |
| 20260904215021 | 71 | 343 | 0.0 | 3.0 | 0.00 | 0.04 | 0.01 | 90 | 1022.4 |
| 20260904214549 | 71 | 343 | 0.0 | 3.0 | 0.00 | 0.04 | 0.01 | 91 | 1022.5 |
| 20260904214016 | 71 | 343 | 2.0 | 3.0 | 0.00 | 0.04 | 0.01 | 90 | 1022.4 |
| 20260904213524 | 71 | 340 | 0.0 | 1.0 | 0.00 | 0.04 | 0.01 | 90 | 1022.4 |
| 20260904213011 | 71 | 340 | 0.0 | 0.0 | 0.00 | 0.04 | 0.01 | 90 | 1022.5 |
| 20260904212520 | 71 | 340 | 0.0 | 0.0 | 0.00 | 0.04 | 0.01 | 90 | 1022.4 |